Time;durP1;ratioP1;P1;durP2;ratioP2;P2;SDS_P1;SDS_P2;PMS_P1;PMS_P2;Temp;Humidity;BMP_temperature;BMP_pressure;BME280_temperature;BME280_humidity;BME280_pressure;Samples;Min_cycle;Max_cycle;Signal;HPM_P1;HPM_P2
2022/07/07 00:01:08;;;;;;;5.50;1.90;;;;;;;16.94;74.34;101634.66;5077128;28;20035;-70
2022/07/07 00:03:34;;;;;;;5.03;1.77;;;;;;;16.90;74.58;101639.19;5041843;28;20033;-70
2022/07/07 00:05:59;;;;;;;6.60;1.95;;;;;;;16.87;74.64;101637.00;5043857;28;20028;-70
2022/07/07 00:08:25;;;;;;;8.00;1.90;;;;;;;16.84;75.21;101638.47;5044000;28;20021;-70
2022/07/07 00:10:50;;;;;;;5.57;1.98;;;;;;;16.81;74.69;101632.66;5043004;28;20036;-70
2022/07/07 00:13:16;;;;;;;5.13;1.90;;;;;;;16.77;75.76;101626.84;5056879;28;20036;-70
2022/07/07 00:15:45;;;;;;;7.45;2.33;;;;;;;16.73;75.95;101620.94;5059587;28;20028;-70
2022/07/07 00:18:11;;;;;;;6.72;2.13;;;;;;;16.68;75.40;101629.47;5044484;28;20028;-70
2022/07/07 00:20:36;;;;;;;5.30;1.73;;;;;;;16.69;75.32;101625.53;5074809;28;20035;-70
2022/07/07 00:23:02;;;;;;;5.55;2.00;;;;;;;16.63;75.04;101615.56;5076152;28;20024;-70
2022/07/07 00:25:27;;;;;;;4.15;1.80;;;;;;;16.59;75.35;101619.28;5059641;28;20038;-70
2022/07/07 00:27:53;;;;;;;5.03;1.77;;;;;;;16.55;75.62;101616.25;5060104;28;20029;-70
2022/07/07 00:30:18;;;;;;;7.03;2.08;;;;;;;16.58;76.24;101607.22;5060119;28;20036;-70
2022/07/07 00:32:44;;;;;;;3.95;1.50;;;;;;;16.51;75.40;101602.00;5043327;28;20039;-70
2022/07/07 00:35:09;;;;;;;4.63;1.98;;;;;;;16.48;75.33;101615.81;5056272;28;20749;-70
2022/07/07 00:37:35;;;;;;;5.70;1.60;;;;;;;16.44;75.63;101611.97;5076101;28;20028;-70
2022/07/07 00:40:00;;;;;;;6.20;1.88;;;;;;;16.43;76.01;101611.09;5060025;28;20078;-70
2022/07/07 00:42:26;;;;;;;6.40;1.77;;;;;;;16.41;75.54;101605.00;5073002;28;20497;-70
2022/07/07 00:44:51;;;;;;;5.43;1.70;;;;;;;16.39;76.34;101612.06;5059705;28;20059;-70
2022/07/07 00:47:17;;;;;;;4.15;1.52;;;;;;;16.39;76.34;101614.84;5076652;28;20028;-70
2022/07/07 00:49:43;;;;;;;2.63;1.67;;;;;;;16.37;76.09;101614.31;5055810;28;20035;-70
2022/07/07 00:52:08;;;;;;;6.60;2.55;;;;;;;16.25;77.39;101610.03;5059517;28;20024;-70
2022/07/07 00:54:34;;;;;;;4.93;1.60;;;;;;;16.26;76.77;101608.06;5023838;28;20049;-70
2022/07/07 00:57:00;;;;;;;3.83;1.60;;;;;;;16.22;77.04;101610.66;5039799;28;20029;-70
2022/07/07 00:59:25;;;;;;;7.05;1.85;;;;;;;16.24;78.21;101602.78;5073911;28;20395;-70
2022/07/07 01:01:51;;;;;;;5.65;1.88;;;;;;;16.29;77.48;101601.84;5059329;28;20043;-70
2022/07/07 01:04:17;;;;;;;5.60;1.55;;;;;;;16.23;78.59;101603.88;5076080;28;20492;-70
2022/07/07 01:06:42;;;;;;;4.53;1.52;;;;;;;16.25;78.08;101590.41;5075953;28;20446;-70
2022/07/07 01:09:08;;;;;;;6.97;2.00;;;;;;;16.23;77.16;101592.69;5058855;28;20025;-70
2022/07/07 01:11:51;;;;;;;6.72;1.75;;;;;;;16.21;78.38;101583.72;5040373;28;20029;-70
2022/07/07 01:14:16;;;;;;;4.78;1.60;;;;;;;16.22;78.49;101590.19;5059418;28;20101;-70
2022/07/07 01:16:42;;;;;;;8.48;1.85;;;;;;;16.18;77.55;101587.16;5059162;28;20029;-70
2022/07/07 01:19:08;;;;;;;7.15;1.80;;;;;;;16.18;78.62;101587.16;5042551;28;20021;-70
2022/07/07 01:21:41;;;;;;;4.60;1.30;;;;;;;16.12;77.93;101587.56;5040896;28;20467;-70
2022/07/07 01:24:07;;;;;;;6.68;1.90;;;;;;;16.06;78.96;101590.44;5075379;28;20040;-70
2022/07/07 01:26:32;;;;;;;9.57;2.17;;;;;;;16.05;79.31;101585.16;5058832;28;20033;-70
2022/07/07 01:28:59;;;;;;;6.40;2.00;;;;;;;16.00;82.03;101588.03;5074693;28;20064;-70
2022/07/07 01:31:24;;;;;;;5.68;1.95;;;;;;;15.98;80.54;101587.50;5069385;28;20088;-70
2022/07/07 01:33:50;;;;;;;5.88;1.55;;;;;;;15.98;80.46;101587.50;5042186;28;20510;-70
2022/07/07 01:36:15;;;;;;;5.65;1.70;;;;;;;15.97;80.98;101586.66;5092115;28;20027;-70
2022/07/07 01:38:41;;;;;;;5.38;1.60;;;;;;;15.96;80.20;101584.16;5041387;28;20048;-70
2022/07/07 01:41:06;;;;;;;4.68;1.35;;;;;;;15.96;79.97;101584.16;5055225;28;20028;-70
2022/07/07 01:43:32;;;;;;;4.47;1.50;;;;;;;15.96;79.69;101589.75;5074451;28;20024;-70
2022/07/07 01:45:57;;;;;;;3.83;1.77;;;;;;;15.94;79.55;101575.25;5108707;28;20033;-70
2022/07/07 01:48:23;;;;;;;5.00;1.83;;;;;;;15.94;79.30;101572.44;5058066;28;20040;-70
2022/07/07 01:50:49;;;;;;;5.13;1.48;;;;;;;15.91;79.80;101576.69;5076534;28;20024;-70
2022/07/07 01:53:15;;;;;;;6.47;1.70;;;;;;;15.89;79.72;101575.31;5106739;28;20127;-70
2022/07/07 01:55:40;;;;;;;4.38;1.65;;;;;;;15.86;80.51;101580.38;5074691;28;20090;-70
2022/07/07 01:58:06;;;;;;;4.72;1.40;;;;;;;15.89;80.03;101572.53;5058132;28;20036;-70
2022/07/07 02:00:31;;;;;;;6.40;1.63;;;;;;;15.81;79.61;101572.06;5054590;28;20036;-70
2022/07/07 02:02:57;;;;;;;5.22;1.48;;;;;;;15.81;79.64;101571.22;5054161;28;20032;-70
2022/07/07 02:05:22;;;;;;;5.95;1.27;;;;;;;15.79;79.04;101567.91;5055822;28;20493;-70
2022/07/07 02:07:48;;;;;;;7.10;1.38;;;;;;;15.83;79.83;101569.78;5058217;28;20035;-70
2022/07/07 02:11:12;;;;;;;5.75;1.67;;;;;;;15.78;79.98;101569.88;5057927;28;20027;-70
2022/07/07 02:12:59;;;;;;;5.78;1.77;;;;;;;15.77;81.47;101562.63;5035577;28;20029;-70
2022/07/07 02:15:25;;;;;;;6.30;1.67;;;;;;;15.74;80.17;101565.16;5091469;28;20024;-70
2022/07/07 02:17:50;;;;;;;7.22;1.70;;;;;;;15.71;81.01;101554.56;5041710;28;20108;-70
2022/07/07 02:20:15;;;;;;;6.18;1.75;;;;;;;15.69;81.15;101552.09;5074581;28;20035;-70
2022/07/07 02:22:41;;;;;;;6.00;1.80;;;;;;;15.68;81.45;101555.16;5074005;28;20102;-70
2022/07/07 02:25:07;;;;;;;6.05;1.40;;;;;;;15.67;80.81;101554.31;5075923;28;20386;-70
2022/07/07 02:27:32;;;;;;;5.40;1.73;;;;;;;15.67;81.15;101554.31;5057763;28;20028;-70
2022/07/07 02:29:58;;;;;;;9.23;2.03;;;;;;;15.66;80.35;101555.47;5058087;28;20074;-70
2022/07/07 02:32:23;;;;;;;7.05;1.45;;;;;;;15.68;80.26;101557.94;5057578;28;20028;-70
2022/07/07 02:34:49;;;;;;;4.13;1.33;;;;;;;15.63;79.97;101558.88;5041332;28;20029;-70
2022/07/07 02:37:14;;;;;;;5.85;1.48;;;;;;;15.58;79.99;101553.34;5037982;28;20028;-70
2022/07/07 02:39:40;;;;;;;5.15;1.40;;;;;;;15.57;80.35;101552.53;5052599;28;20040;-70
2022/07/07 02:42:05;;;;;;;5.07;1.40;;;;;;;15.57;80.02;101546.06;5024885;28;20020;-70
2022/07/07 02:44:30;;;;;;;5.68;1.67;;;;;;;15.55;79.59;101545.56;5061500;28;20078;-70
2022/07/07 02:46:56;;;;;;;5.80;1.50;;;;;;;15.54;79.90;101555.06;5078547;28;20036;-70
2022/07/07 02:49:21;;;;;;;5.00;1.50;;;;;;;15.51;79.64;101545.31;5054504;28;20477;-70
2022/07/07 02:51:47;;;;;;;7.88;1.60;;;;;;;15.50;79.87;101554.03;5028622;28;20024;-70
2022/07/07 02:54:12;;;;;;;5.18;1.50;;;;;;;15.45;79.58;101565.28;5077863;28;20127;-70
2022/07/07 02:56:38;;;;;;;6.95;1.50;;;;;;;15.46;79.63;101556.59;5061918;28;20048;-70
2022/07/07 02:59:03;;;;;;;3.85;1.08;;;;;;;15.38;79.54;101563.69;5078306;28;20037;-70
2022/07/07 03:01:29;;;;;;;5.95;1.30;;;;;;;15.34;79.52;101559.81;5055652;28;20044;-70
2022/07/07 03:03:55;;;;;;;4.90;1.38;;;;;;;15.34;79.88;101562.63;5078346;28;20033;-70
2022/07/07 03:06:20;;;;;;;3.88;1.30;;;;;;;15.33;80.35;101565.75;5044899;28;20025;-70
2022/07/07 03:08:46;;;;;;;4.50;1.30;;;;;;;15.33;79.65;101563.78;5058238;28;20017;-70
2022/07/07 03:11:12;;;;;;;6.40;1.45;;;;;;;15.28;79.88;101563.84;5059106;28;20025;-70
2022/07/07 03:13:37;;;;;;;4.72;1.45;;;;;;;15.25;80.02;101556.03;5061120;28;20028;-70
2022/07/07 03:16:03;;;;;;;6.00;1.48;;;;;;;15.26;80.01;101557.69;5061309;28;20029;-70
2022/07/07 03:18:28;;;;;;;6.60;1.45;;;;;;;15.24;79.77;101562.78;5061331;28;20039;-70
2022/07/07 03:20:54;;;;;;;3.53;1.20;;;;;;;15.24;79.74;101568.38;5042117;28;20476;-70
2022/07/07 03:23:19;;;;;;;6.30;1.30;;;;;;;15.25;79.79;101572.00;5053945;28;20036;-70
2022/07/07 03:25:45;;;;;;;6.35;1.45;;;;;;;15.20;79.07;101564.50;5078810;28;20029;-70
2022/07/07 03:28:10;;;;;;;3.83;1.17;;;;;;;15.17;79.36;101574.31;5111741;28;20025;-70
2022/07/07 03:30:36;;;;;;;5.57;1.42;;;;;;;15.18;80.00;101564.81;5075491;28;20443;-70
2022/07/07 03:33:01;;;;;;;5.25;1.30;;;;;;;15.15;80.02;101562.59;5070083;28;20036;-70
2022/07/07 03:35:27;;;;;;;7.85;1.65;;;;;;;15.11;80.25;101566.31;5077660;28;20036;-70
2022/07/07 03:37:52;;;;;;;7.28;1.92;;;;;;;15.08;80.97;101569.69;5056884;28;20037;-70
2022/07/07 03:40:18;;;;;;;5.85;1.83;;;;;;;15.09;81.08;101563.78;5074118;28;20032;-70
2022/07/07 03:42:43;;;;;;;5.13;1.50;;;;;;;15.06;81.45;101566.34;5061206;28;20028;-70
2022/07/07 03:45:09;;;;;;;6.07;1.65;;;;;;;15.02;80.76;101554.94;5044194;28;20620;-70
2022/07/07 03:47:34;;;;;;;4.68;1.70;;;;;;;15.02;80.48;101554.13;5078447;28;20469;-70
2022/07/07 03:49:59;;;;;;;6.82;1.48;;;;;;;15.02;80.69;101559.72;5060713;28;20029;-70
2022/07/07 03:52:25;;;;;;;5.18;1.67;;;;;;;15.02;80.82;101552.16;5060547;28;20025;-70
2022/07/07 03:54:50;;;;;;;3.67;1.55;;;;;;;14.96;80.55;101550.56;5059847;28;20052;-70
2022/07/07 03:57:16;;;;;;;3.97;1.20;;;;;;;14.93;80.87;101557.56;5076322;28;20393;-70
2022/07/07 03:59:41;;;;;;;5.60;1.48;;;;;;;14.89;81.92;101547.28;5078276;28;20726;-70
2022/07/07 04:02:07;;;;;;;6.80;1.67;;;;;;;14.90;81.64;101546.94;5078315;28;20094;-70
2022/07/07 04:04:32;;;;;;;8.68;1.75;;;;;;;14.92;82.12;101555.06;5078271;28;20482;-70
2022/07/07 04:06:58;;;;;;;5.28;1.40;;;;;;;14.92;81.93;101555.88;5078411;28;20036;-70
2022/07/07 04:09:23;;;;;;;4.68;1.15;;;;;;;14.91;81.42;101559.00;5077834;28;20029;-70
2022/07/07 04:11:49;;;;;;;3.70;1.33;;;;;;;14.88;81.62;101557.63;5060528;28;20078;-70
2022/07/07 04:14:14;;;;;;;6.72;1.40;;;;;;;14.87;81.20;101552.31;5076998;28;20033;-70
2022/07/07 04:16:40;;;;;;;5.38;1.45;;;;;;;14.87;81.44;101561.53;5057002;28;20033;-70
2022/07/07 04:19:05;;;;;;;4.10;1.35;;;;;;;14.89;81.26;101562.06;5056962;28;20028;-70
2022/07/07 04:21:31;;;;;;;2.47;1.35;;;;;;;14.88;80.98;101563.22;5071911;28;20044;-70
2022/07/07 04:23:56;;;;;;;5.47;1.33;;;;;;;14.87;80.83;101558.75;5075527;28;20382;-70
2022/07/07 04:26:22;;;;;;;5.28;1.60;;;;;;;14.86;81.00;101557.09;5076782;28;20157;-70
2022/07/07 04:28:47;;;;;;;5.93;1.42;;;;;;;14.88;80.96;101568.00;5060219;28;20032;-70
2022/07/07 04:31:12;;;;;;;5.80;1.35;;;;;;;14.85;80.96;101568.56;5078007;28;20032;-70
2022/07/07 04:33:38;;;;;;;3.72;1.33;;;;;;;14.84;81.01;101559.34;5077514;28;20025;-70
2022/07/07 04:36:04;;;;;;;5.72;1.70;;;;;;;14.80;80.98;101558.28;5077503;28;20025;-70
2022/07/07 04:38:30;;;;;;;5.05;1.85;;;;;;;14.84;81.51;101566.91;5076072;28;20035;-70
2022/07/07 04:40:55;;;;;;;3.72;1.40;;;;;;;14.83;81.10;101557.69;5043149;28;20481;-70
2022/07/07 04:43:21;;;;;;;5.95;1.77;;;;;;;14.81;81.76;101554.34;5076182;28;20028;-70
2022/07/07 04:45:46;;;;;;;4.68;1.50;;;;;;;14.82;82.54;101567.22;5077369;28;20511;-70
2022/07/07 04:48:11;;;;;;;5.80;1.50;;;;;;;14.83;82.30;101568.88;5077406;28;20021;-70
2022/07/07 04:50:37;;;;;;;7.15;1.63;;;;;;;14.86;83.86;101573.88;5044935;28;20033;-70
2022/07/07 04:53:03;;;;;;;7.07;1.80;;;;;;;14.87;85.38;101575.53;5039069;28;20029;-70
2022/07/07 04:55:28;;;;;;;6.43;1.75;;;;;;;14.92;84.86;101574.63;5059247;28;20048;-70
2022/07/07 04:57:54;;;;;;;4.88;1.70;;;;;;;14.95;85.25;101576.84;5058768;28;20058;-70
2022/07/07 05:00:19;;;;;;;6.28;1.73;;;;;;;15.00;85.36;101573.16;5056163;28;20025;-70
2022/07/07 05:02:45;;;;;;;7.63;1.88;;;;;;;15.03;83.98;101583.75;5037216;28;20472;-71
2022/07/07 05:05:10;;;;;;;4.75;1.60;;;;;;;15.07;85.14;101577.28;5058610;28;20020;-71
2022/07/07 05:07:36;;;;;;;5.53;1.63;;;;;;;15.10;86.47;101585.06;5092598;28;20082;-70
2022/07/07 05:10:01;;;;;;;5.90;2.10;;;;;;;15.12;86.20;101582.78;5059076;28;20033;-71
2022/07/07 05:12:27;;;;;;;5.70;1.90;;;;;;;15.16;85.75;101583.03;5075712;28;20480;-70
2022/07/07 05:14:52;;;;;;;7.05;2.00;;;;;;;15.21;86.17;101580.19;5059310;28;20056;-70
2022/07/07 05:17:18;;;;;;;6.40;2.17;;;;;;;15.24;85.78;101585.16;5059199;28;20107;-70
2022/07/07 05:19:43;;;;;;;6.65;1.70;;;;;;;15.26;85.90;101582.88;5042375;28;20713;-70
2022/07/07 05:22:09;;;;;;;4.60;1.30;;;;;;;15.31;85.11;101595.97;5039329;28;20090;-70
2022/07/07 05:24:34;;;;;;;7.30;1.65;;;;;;;15.32;86.45;101597.63;5076168;28;20039;-70
2022/07/07 05:27:00;;;;;;;7.35;1.90;;;;;;;15.34;86.30;101601.81;5076502;28;20043;-70
2022/07/07 05:29:26;;;;;;;8.82;2.10;;;;;;;15.39;86.54;101598.94;5076455;28;20024;-70
2022/07/07 05:31:52;;;;;;;5.05;1.55;;;;;;;15.44;87.95;101608.44;5058925;28;20029;-70
2022/07/07 05:34:17;;;;;;;5.30;1.70;;;;;;;15.48;88.01;101601.09;5076404;28;20130;-70
2022/07/07 05:36:43;;;;;;;9.25;2.03;;;;;;;15.54;89.43;101608.28;5076335;28;20040;-70
2022/07/07 05:39:08;;;;;;;8.70;2.28;;;;;;;15.62;90.25;101610.41;5074881;28;20029;-70
2022/07/07 05:41:34;;;;;;;6.43;2.00;;;;;;;15.70;90.29;101612.56;5076123;28;20029;-70
2022/07/07 05:43:59;;;;;;;5.50;1.60;;;;;;;15.80;86.93;101612.41;5022156;28;20033;-70
2022/07/07 05:46:24;;;;;;;6.45;1.55;;;;;;;15.94;84.77;101612.50;5051134;28;20028;-70
2022/07/07 05:48:50;;;;;;;7.80;2.25;;;;;;;16.08;83.59;101615.38;5057478;28;20024;-70
2022/07/07 05:51:15;;;;;;;9.98;1.90;;;;;;;16.23;83.77;101615.09;5074897;28;20033;-70
2022/07/07 05:53:41;;;;;;;7.47;1.52;;;;;;;16.41;82.90;101623.78;5043427;28;20056;-70
2022/07/07 05:56:07;;;;;;;7.53;1.70;;;;;;;16.60;82.10;101623.72;5058304;28;20496;-70
2022/07/07 05:58:32;;;;;;;5.20;1.50;;;;;;;16.79;82.21;101618.91;5075596;28;20060;-70
2022/07/07 06:00:58;;;;;;;4.88;1.42;;;;;;;16.97;82.42;101625.59;5076039;28;20039;-70
2022/07/07 06:03:23;;;;;;;7.25;1.40;;;;;;;17.14;81.88;101625.00;5072214;28;20033;-70
2022/07/07 06:05:49;;;;;;;7.75;2.10;;;;;;;17.31;82.79;101638.41;5076513;28;20476;-70
2022/07/07 06:08:14;;;;;;;8.00;1.98;;;;;;;17.43;82.31;101633.09;5075915;28;20168;-70
2022/07/07 06:10:39;;;;;;;7.82;1.85;;;;;;;17.57;82.39;101641.50;5058078;28;20035;-70
2022/07/07 06:13:05;;;;;;;5.55;1.55;;;;;;;17.69;82.02;101640.94;5054959;28;20021;-70
2022/07/07 06:15:33;;;;;;;5.72;1.90;;;;;;;17.80;82.97;101636.78;5074954;28;20039;-71
2022/07/07 06:18:05;;;;;;;7.90;1.85;;;;;;;17.92;81.09;101647.50;5073664;28;20033;-66
2022/07/07 06:20:31;;;;;;;9.27;1.75;;;;;;;18.01;82.28;101646.44;5058078;28;20024;-68
2022/07/07 06:22:56;;;;;;;4.60;1.60;;;;;;;18.10;80.84;101654.94;5057383;28;20041;-68
2022/07/07 06:25:22;;;;;;;10.07;1.98;;;;;;;18.21;81.62;101647.91;5057522;28;20047;-67
2022/07/07 06:27:48;;;;;;;10.10;2.38;;;;;;;18.32;82.16;101640.06;5074459;28;20493;-68
2022/07/07 06:30:13;;;;;;;7.68;2.17;;;;;;;18.40;82.84;101635.66;5058304;28;20042;-68
2022/07/07 06:32:39;;;;;;;7.50;2.10;;;;;;;18.51;82.03;101646.31;5054485;28;20044;-67
2022/07/07 06:35:05;;;;;;;7.45;2.08;;;;;;;18.63;82.38;101642.91;5054359;28;20078;-68
2022/07/07 06:37:30;;;;;;;8.07;2.00;;;;;;;18.76;81.30;101646.84;5039375;28;20116;-68
2022/07/07 06:39:56;;;;;;;7.57;2.10;;;;;;;18.91;80.54;101643.59;5057989;28;20040;-68
2022/07/07 06:42:22;;;;;;;8.40;2.00;;;;;;;19.04;80.98;101636.22;5057953;28;20063;-68
2022/07/07 06:44:47;;;;;;;9.10;1.85;;;;;;;19.14;80.22;101637.94;5057546;28;20040;-67
2022/07/07 06:47:13;;;;;;;5.97;1.80;;;;;;;19.27;79.63;101639.78;5074515;28;20035;-68
2022/07/07 06:49:38;;;;;;;7.88;2.22;;;;;;;19.40;79.45;101635.22;5051107;28;20033;-68
2022/07/07 06:52:04;;;;;;;7.20;1.98;;;;;;;19.53;78.56;101645.53;5051916;28;20095;-68
2022/07/07 06:54:29;;;;;;;7.82;2.00;;;;;;;19.61;79.43;101643.88;5056667;28;20445;-68
2022/07/07 06:56:55;;;;;;;11.82;2.53;;;;;;;19.72;78.99;101644.41;5073468;28;20036;-68
2022/07/07 06:59:21;;;;;;;8.57;2.10;;;;;;;19.79;79.15;101644.78;5070994;28;20032;-67
2022/07/07 07:01:47;;;;;;;9.52;2.10;;;;;;;19.90;79.22;101646.13;5091507;28;20025;-68
2022/07/07 07:04:13;;;;;;;6.38;1.80;;;;;;;19.91;78.40;101656.22;5057828;28;20031;-68
2022/07/07 07:06:40;;;;;;;7.05;1.90;;;;;;;19.98;78.65;101658.56;5057502;28;20032;-68
2022/07/07 07:09:05;;;;;;;7.50;2.00;;;;;;;20.02;78.56;101659.56;5057552;28;20449;-68
2022/07/07 07:11:31;;;;;;;8.27;2.20;;;;;;;20.06;79.15;101666.22;5038579;28;20029;-68
2022/07/07 07:13:58;;;;;;;8.05;2.03;;;;;;;20.18;78.42;101674.84;5054034;28;20083;-67
2022/07/07 07:16:24;;;;;;;5.22;1.60;;;;;;;20.33;75.87;101672.66;5062875;28;20031;-67
2022/07/07 07:18:50;;;;;;;5.13;1.70;;;;;;;20.42;75.33;101677.16;5057426;28;20041;-67
2022/07/07 07:21:15;;;;;;;9.00;2.20;;;;;;;20.44;75.72;101677.63;5069697;28;20036;-67
2022/07/07 07:23:41;;;;;;;8.00;1.90;;;;;;;20.57;75.37;101680.66;5074189;28;20032;-68
2022/07/07 07:26:07;;;;;;;6.13;1.52;;;;;;;20.68;74.73;101688.44;5057521;28;20372;-67
2022/07/07 07:28:33;;;;;;;8.48;2.00;;;;;;;20.78;74.20;101689.25;5056261;28;20017;-67
2022/07/07 07:30:59;;;;;;;6.22;2.08;;;;;;;20.87;74.10;101695.72;5059735;28;20080;-68
2022/07/07 07:33:24;;;;;;;6.13;1.65;;;;;;;20.94;73.25;101696.03;5077652;28;20430;-67
2022/07/07 07:35:50;;;;;;;7.55;2.03;;;;;;;20.97;73.17;101692.53;5077712;28;20029;-68
2022/07/07 07:38:15;;;;;;;5.32;1.55;;;;;;;21.03;73.44;101691.19;5061085;28;20028;-67
2022/07/07 07:40:41;;;;;;;5.90;2.05;;;;;;;21.11;73.42;101695.97;5077232;28;20032;-67
2022/07/07 07:43:06;;;;;;;6.80;2.10;;;;;;;21.20;73.44;101688.31;5077271;28;20032;-67
2022/07/07 07:45:32;;;;;;;7.70;1.65;;;;;;;21.30;71.97;101698.41;5059301;28;20111;-67
2022/07/07 07:48:01;;;;;;;5.18;1.73;;;;;;;21.39;71.19;101696.41;5061249;28;20035;-67
2022/07/07 07:50:27;;;;;;;2.92;1.40;;;;;;;21.47;70.89;101708.00;5056482;28;20056;-67
2022/07/07 07:52:52;;;;;;;6.47;1.70;;;;;;;21.51;70.58;101703.34;5038731;28;20070;-67
2022/07/07 07:55:19;;;;;;;5.38;1.88;;;;;;;21.54;71.70;101702.66;5060437;28;20052;-67
2022/07/07 07:57:44;;;;;;;8.50;1.95;;;;;;;21.59;71.49;101706.13;5053539;28;20447;-67
2022/07/07 08:00:11;;;;;;;4.55;1.63;;;;;;;21.71;70.25;101699.75;5060379;28;20036;-67
2022/07/07 08:02:37;;;;;;;5.07;1.40;;;;;;;21.78;69.74;101702.84;5043975;28;20028;-68
2022/07/07 08:05:02;;;;;;;6.30;1.60;;;;;;;21.81;69.40;101707.00;5060603;28;20029;-67
2022/07/07 08:07:28;;;;;;;5.95;1.77;;;;;;;21.83;68.34;101711.13;5060611;28;20025;-68
2022/07/07 08:09:53;;;;;;;3.97;1.40;;;;;;;21.92;68.15;101705.41;5060151;28;20485;-67
2022/07/07 08:12:19;;;;;;;5.60;1.52;;;;;;;21.86;67.48;101706.81;5057772;28;20041;-67
2022/07/07 08:14:45;;;;;;;3.63;1.40;;;;;;;21.97;67.03;101710.06;5043776;28;20032;-67
2022/07/07 08:17:11;;;;;;;6.65;1.75;;;;;;;22.05;67.07;101714.84;5060361;28;20024;-67
2022/07/07 08:19:36;;;;;;;3.60;1.42;;;;;;;22.06;66.81;101713.66;5059215;28;20024;-67
2022/07/07 08:22:02;;;;;;;6.15;1.90;;;;;;;21.97;67.08;101721.38;5060373;28;20107;-67
2022/07/07 08:24:28;;;;;;;5.43;2.05;;;;;;;21.95;67.37;101715.22;5026862;28;20035;-67
2022/07/07 08:26:53;;;;;;;6.32;1.50;;;;;;;21.80;68.88;101717.47;5059982;28;20365;-67
2022/07/07 08:29:18;;;;;;;4.85;1.60;;;;;;;21.78;68.85;101722.63;5060022;28;20020;-67
2022/07/07 08:31:44;;;;;;;4.28;1.40;;;;;;;21.78;68.21;101719.00;5078163;28;20036;-67
2022/07/07 08:34:10;;;;;;;8.65;2.08;;;;;;;21.70;69.19;101719.88;5021669;28;20041;-72
2022/07/07 08:36:35;;;;;;;3.65;1.60;;;;;;;21.69;69.34;101718.22;5053917;28;20112;-72
2022/07/07 08:39:01;;;;;;;7.88;1.63;;;;;;;21.73;68.66;101716.34;5077321;28;20029;-72
2022/07/07 08:41:26;;;;;;;6.82;1.80;;;;;;;21.67;68.92;101718.53;5076572;28;20040;-72
2022/07/07 08:43:52;;;;;;;6.22;1.80;;;;;;;21.59;70.23;101716.59;5059620;28;20031;-72
2022/07/07 08:46:18;;;;;;;5.55;1.58;;;;;;;21.57;70.10;101711.28;5077684;28;20024;-72
2022/07/07 08:48:44;;;;;;;4.90;1.80;;;;;;;21.60;70.60;101721.91;5073883;28;20021;-72
2022/07/07 08:51:09;;;;;;;6.35;1.65;;;;;;;21.57;71.16;101716.94;5074308;28;20511;-72
2022/07/07 08:53:36;;;;;;;8.48;1.95;;;;;;;21.59;70.20;101717.44;5075055;28;20198;-72
2022/07/07 08:56:06;;;;;;;4.85;1.60;;;;;;;21.57;70.87;101725.44;5066189;28;20174;-72
2022/07/07 08:58:32;;;;;;;5.13;1.70;;;;;;;21.57;70.16;101718.94;5073857;28;20036;-72
2022/07/07 09:00:58;;;;;;;6.43;1.70;;;;;;;21.63;69.91;101721.22;5076939;28;20043;-72
2022/07/07 09:03:26;;;;;;;5.22;1.60;;;;;;;21.71;69.11;101719.53;5076634;28;20028;-72
2022/07/07 09:05:51;;;;;;;4.72;1.45;;;;;;;21.84;68.63;101720.44;5073285;28;20021;-72
2022/07/07 09:08:21;;;;;;;3.60;1.38;;;;;;;21.96;67.68;101714.91;5057624;28;20024;-72
2022/07/07 09:10:46;;;;;;;5.20;1.48;;;;;;;22.12;67.64;101712.31;5075921;28;20028;-72
2022/07/07 09:13:28;;;;;;;4.97;1.15;;;;;;;22.26;67.28;101721.38;5076973;28;20085;-72
2022/07/07 09:15:55;;;;;;;4.03;1.30;;;;;;;22.38;66.46;101726.28;5070441;28;20025;-72
2022/07/07 09:18:27;;;;;;;4.63;1.25;;;;;;;22.48;65.19;101723.03;5074773;28;20028;-72
2022/07/07 09:20:52;;;;;;;3.13;1.27;;;;;;;22.65;65.03;101721.19;5068660;28;20033;-72
2022/07/07 09:23:18;;;;;;;2.88;1.10;;;;;;;22.77;64.46;101720.44;5076592;28;20036;-72
2022/07/07 09:25:43;;;;;;;5.03;1.70;;;;;;;22.87;64.07;101731.31;5076627;28;20094;-72
2022/07/07 09:28:09;;;;;;;1.63;0.93;;;;;;;22.96;63.85;101726.44;5076539;28;20025;-72
2022/07/07 09:30:45;;;;;;;4.60;1.15;;;;;;;23.06;63.43;101722.31;5076545;28;20542;-72
2022/07/07 09:33:21;;;;;;;3.00;1.05;;;;;;;23.09;62.66;101732.97;5059032;28;20047;-72
2022/07/07 09:38:32;;;;;;;3.28;1.38;;;;;;;23.13;62.64;101733.94;5071010;28;20036;-72
2022/07/07 09:41:08;;;;;;;7.45;1.58;;;;;;;23.06;62.96;101730.81;5076204;28;20034;-72
2022/07/07 09:43:47;;;;;;;4.60;1.25;;;;;;;23.07;63.16;101741.81;5076311;28;20472;-72
2022/07/07 09:46:18;;;;;;;4.75;1.40;;;;;;;23.09;63.17;101738.63;5076225;28;20108;-72
2022/07/07 09:48:48;;;;;;;5.88;1.30;;;;;;;23.10;62.82;101740.31;5055820;28;20029;-72
2022/07/07 09:51:27;;;;;;;4.95;1.20;;;;;;;23.07;62.91;101736.16;5074884;28;20373;-72
2022/07/07 09:54:10;;;;;;;3.97;1.17;;;;;;;23.07;62.67;101736.16;5054434;28;20052;-71
2022/07/07 09:56:45;;;;;;;4.45;1.20;;;;;;;23.05;62.52;101737.69;5074230;28;20099;-72
2022/07/07 09:59:21;;;;;;;4.35;1.42;;;;;;;23.02;62.40;101739.22;5074579;28;20507;-72
2022/07/07 10:01:46;;;;;;;3.28;1.48;;;;;;;22.96;62.88;101735.78;5072176;28;20028;-72
2022/07/07 10:04:14;;;;;;;3.78;1.25;;;;;;;22.89;63.18;101745.97;5074594;28;20028;-72
2022/07/07 10:06:41;;;;;;;3.17;1.20;;;;;;;22.81;64.05;101752.53;5074862;28;20484;-72
2022/07/07 10:09:10;;;;;;;3.78;1.50;;;;;;;22.80;63.98;101740.41;5054398;28;20576;-72
2022/07/07 10:11:36;;;;;;;3.38;1.15;;;;;;;22.80;63.91;101740.41;5102793;28;20029;-72
2022/07/07 10:14:18;;;;;;;3.25;1.30;;;;;;;22.76;64.86;101745.09;5076030;28;20433;-72
2022/07/07 10:16:46;;;;;;;4.47;1.23;;;;;;;22.73;65.32;101749.47;5089591;28;20032;-72
2022/07/07 10:19:13;;;;;;;6.28;1.60;;;;;;;22.74;64.55;101750.28;5089809;28;20439;-72
2022/07/07 10:21:43;;;;;;;4.30;1.35;;;;;;;22.75;64.84;101749.91;5071774;28;20036;-72
2022/07/07 10:24:08;;;;;;;3.42;1.25;;;;;;;22.77;65.58;101748.75;5072762;28;20048;-72
2022/07/07 10:26:42;;;;;;;5.70;1.48;;;;;;;22.83;65.33;101748.19;5074415;28;20467;-72
2022/07/07 10:29:09;;;;;;;5.13;1.50;;;;;;;22.87;65.26;101753.97;5074573;28;20031;-72
2022/07/07 10:31:34;;;;;;;5.57;1.40;;;;;;;22.97;64.92;101748.75;5074460;28;20500;-72
2022/07/07 10:34:10;;;;;;;3.33;1.10;;;;;;;23.06;63.86;101750.66;5102196;28;20047;-72
2022/07/07 10:36:51;;;;;;;4.93;1.67;;;;;;;23.17;63.20;101754.69;5074617;28;20048;-72
2022/07/07 10:39:17;;;;;;;3.40;1.10;;;;;;;23.26;63.44;101761.09;5072921;28;20086;-72
2022/07/07 10:42:06;;;;;;;5.65;1.90;;;;;;;23.32;62.62;101753.22;5075560;28;20033;-72
2022/07/07 10:44:36;;;;;;;4.63;1.30;;;;;;;23.38;63.39;101754.66;5075619;28;20025;-72
2022/07/07 10:47:04;;;;;;;6.85;1.25;;;;;;;23.47;62.13;101754.53;5090892;28;20146;-72
2022/07/07 10:49:43;;;;;;;6.18;1.20;;;;;;;23.47;62.33;101754.53;5069917;28;20099;-72
2022/07/07 10:52:10;;;;;;;3.08;1.00;;;;;;;23.50;61.86;101756.66;5074179;28;20028;-72
2022/07/07 10:54:38;;;;;;;3.50;1.00;;;;;;;23.57;62.19;101759.75;5075034;28;20048;-72
2022/07/07 10:57:05;;;;;;;3.75;1.00;;;;;;;23.62;61.29;101757.53;5105759;28;20037;-68
2022/07/07 10:59:51;;;;;;;4.10;1.02;;;;;;;23.69;61.51;101756.09;5075379;28;20063;-68
2022/07/07 11:02:16;;;;;;;3.63;1.38;;;;;;;23.76;61.13;101756.34;5069743;28;20035;-68
2022/07/07 11:04:46;;;;;;;2.15;1.00;;;;;;;23.84;60.45;101764.75;5059639;28;20036;-72
2022/07/07 11:07:16;;;;;;;4.75;1.20;;;;;;;23.83;60.89;101757.44;5079305;28;20036;-72
2022/07/07 11:10:02;;;;;;;3.28;1.20;;;;;;;23.89;60.72;101766.53;5077677;28;20044;-72
2022/07/07 11:12:41;;;;;;;5.55;1.35;;;;;;;23.89;60.67;101760.84;5078089;28;20084;-72
2022/07/07 11:15:20;;;;;;;4.03;1.15;;;;;;;23.95;61.14;101764.28;5074011;28;20032;-72
2022/07/07 11:18:06;;;;;;;5.75;1.25;;;;;;;24.00;60.20;101761.22;5077453;28;20036;-72
2022/07/07 11:20:32;;;;;;;3.58;1.00;;;;;;;24.08;59.70;101768.78;5078142;28;20443;-71
2022/07/07 11:23:07;;;;;;;3.25;0.95;;;;;;;24.14;59.43;101764.50;5078877;28;20059;-72
2022/07/07 11:25:32;;;;;;;4.18;1.05;;;;;;;24.22;59.45;101757.06;5078698;28;20037;-72